メインページ
METAR-TAF:

METAR-TAF

空港 :

ムワンザ, タンザニア

緯度: 02-28S, 経度: 032-55E, 海抜: 1139m

現時点の気象観測

当レポートは42分前の08:00(UTC)に作成
東/南東の風 10kt
気温 27°C
湿度 39%
気圧 1019 hPa
視程10km以上
高度2500ftの雲はほとんどない

METAR: HTMW 200800Z 12010KT 9999 FEW025 27/12 Q1019 NOSIG

時間: 11:42 (08:42 UTC)

予報

当レポートは15時間42分前の17:00(UTC)に作成
予報は19日の 18時(UTC)から 20日の 18時(UTC)まで有効
北西の風 10kt
視程10km以上
高度2300ftの雲はほとんどない
高度2400ftの雲はほとんどない, 積乱雲.
高度10000ftの雲は散在している
20日の 01時(UTC)から 20日の 03時(UTC)まで徐々に
東/南東の風 10kt
20日の 11時(UTC)から 20日の 13時(UTC)まで徐々に
西/北西の風 10kt

TAF: HTMW 191700Z 1918/2018 32010KT 9999 FEW023 FEW024CB SCT100 BECMG 2001/2003 12010KT BECMG 2011/2013 30010KT

4,000以上の空港の気象観測と天気予報(METAR報とTAF報)

利用可能な観測所は地図上に黄色い丸と赤い丸で示す。

丸の上にカーソルを重ねると観測所名を参照できる。

次にクリックすると気象観測と天気予報を参照できる。

マップの切り替え:黒色「×」印の緑ボタンをクリックして拡大、「-」印の緑ボタンをクリックして縮小、緑色の三角印をクリックして隣りの地図に切り替え


METAR-TAF: